sensor_id;sensor_type;location;lat;lon;timestamp;temperature;humidity
10848;DHT22;5477;48.806;9.154;2023-02-28T00:00:26;-0.40;99.90
10848;DHT22;5477;48.806;9.154;2023-02-28T00:02:54;-0.40;99.90
10848;DHT22;5477;48.806;9.154;2023-02-28T00:05:24;-0.40;99.90
10848;DHT22;5477;48.806;9.154;2023-02-28T00:07:52;-0.40;99.90
10848;DHT22;5477;48.806;9.154;2023-02-28T00:10:26;-0.40;99.90
10848;DHT22;5477;48.806;9.154;2023-02-28T00:13:00;-0.40;99.90
10848;DHT22;5477;48.806;9.154;2023-02-28T00:15:31;-0.30;99.90
10848;DHT22;5477;48.806;9.154;2023-02-28T00:18:00;-0.30;99.90
10848;DHT22;5477;48.806;9.154;2023-02-28T00:20:30;-0.30;99.90
10848;DHT22;5477;48.806;9.154;2023-02-28T00:23:01;-0.30;99.90
10848;DHT22;5477;48.806;9.154;2023-02-28T00:25:29;-0.40;99.90
10848;DHT22;5477;48.806;9.154;2023-02-28T00:27:58;-0.40;99.90
10848;DHT22;5477;48.806;9.154;2023-02-28T00:30:28;-0.40;99.90
10848;DHT22;5477;48.806;9.154;2023-02-28T00:32:56;-0.40;99.90
10848;DHT22;5477;48.806;9.154;2023-02-28T00:35:29;-0.50;99.90
10848;DHT22;5477;48.806;9.154;2023-02-28T00:37:57;-0.50;99.90
10848;DHT22;5477;48.806;9.154;2023-02-28T00:40:27;-0.50;99.90
10848;DHT22;5477;48.806;9.154;2023-02-28T00:42:55;-0.50;99.90
10848;DHT22;5477;48.806;9.154;2023-02-28T00:45:27;-0.50;99.90
10848;DHT22;5477;48.806;9.154;2023-02-28T00:47:56;-0.50;99.90
10848;DHT22;5477;48.806;9.154;2023-02-28T00:50:25;-0.50;99.90
10848;DHT22;5477;48.806;9.154;2023-02-28T00:52:56;-0.50;99.90
10848;DHT22;5477;48.806;9.154;2023-02-28T00:55:26;-0.50;99.90
10848;DHT22;5477;48.806;9.154;2023-02-28T00:57:57;-0.50;99.90
10848;DHT22;5477;48.806;9.154;2023-02-28T01:00:25;-0.60;99.90
10848;DHT22;5477;48.806;9.154;2023-02-28T01:02:54;-0.60;99.90
10848;DHT22;5477;48.806;9.154;2023-02-28T01:05:24;-0.60;99.90
10848;DHT22;5477;48.806;9.154;2023-02-28T01:07:54;-0.70;99.90
10848;DHT22;5477;48.806;9.154;2023-02-28T01:10:25;-0.70;99.90
10848;DHT22;5477;48.806;9.154;2023-02-28T01:13:01;-0.70;99.90
10848;DHT22;5477;48.806;9.154;2023-02-28T01:15:29;-0.70;99.90
10848;DHT22;5477;48.806;9.154;2023-02-28T01:18:00;-0.70;99.90
10848;DHT22;5477;48.806;9.154;2023-02-28T01:20:30;-0.70;99.90
10848;DHT22;5477;48.806;9.154;2023-02-28T01:22:58;-0.70;99.90
10848;DHT22;5477;48.806;9.154;2023-02-28T01:25:26;-0.70;99.90
10848;DHT22;5477;48.806;9.154;2023-02-28T01:27:54;-0.70;99.90
10848;DHT22;5477;48.806;9.154;2023-02-28T01:30:23;-0.80;99.90
10848;DHT22;5477;48.806;9.154;2023-02-28T01:32:51;-0.80;99.90
10848;DHT22;5477;48.806;9.154;2023-02-28T01:35:21;-0.80;99.90
10848;DHT22;5477;48.806;9.154;2023-02-28T01:37:59;-0.80;99.90
10848;DHT22;5477;48.806;9.154;2023-02-28T01:40:47;-0.80;99.90
10848;DHT22;5477;48.806;9.154;2023-02-28T01:43:21;-0.80;99.90
10848;DHT22;5477;48.806;9.154;2023-02-28T01:45:49;-0.80;99.90
10848;DHT22;5477;48.806;9.154;2023-02-28T01:48:18;-0.70;99.90
10848;DHT22;5477;48.806;9.154;2023-02-28T01:50:49;-0.70;99.90
10848;DHT22;5477;48.806;9.154;2023-02-28T01:53:26;-0.70;99.90
10848;DHT22;5477;48.806;9.154;2023-02-28T01:55:57;-0.80;99.90
10848;DHT22;5477;48.806;9.154;2023-02-28T01:58:27;-0.70;99.90
10848;DHT22;5477;48.806;9.154;2023-02-28T02:00:55;-0.70;99.90
10848;DHT22;5477;48.806;9.154;2023-02-28T02:03:27;-0.70;99.90
10848;DHT22;5477;48.806;9.154;2023-02-28T02:05:56;-0.70;99.90
10848;DHT22;5477;48.806;9.154;2023-02-28T02:08:26;-0.70;99.90
10848;DHT22;5477;48.806;9.154;2023-02-28T02:10:58;-0.70;99.90
10848;DHT22;5477;48.806;9.154;2023-02-28T02:13:46;-0.80;99.90
10848;DHT22;5477;48.806;9.154;2023-02-28T02:16:36;-0.80;99.90
10848;DHT22;5477;48.806;9.154;2023-02-28T02:19:19;-0.80;99.90
10848;DHT22;5477;48.806;9.154;2023-02-28T02:22:12;-0.80;99.90
10848;DHT22;5477;48.806;9.154;2023-02-28T02:25:03;-0.80;99.90
10848;DHT22;5477;48.806;9.154;2023-02-28T02:27:56;-0.90;99.90
10848;DHT22;5477;48.806;9.154;2023-02-28T02:30:41;-0.90;99.90
10848;DHT22;5477;48.806;9.154;2023-02-28T02:33:25;-0.80;99.90
10848;DHT22;5477;48.806;9.154;2023-02-28T02:36:02;-0.80;99.90
10848;DHT22;5477;48.806;9.154;2023-02-28T02:38:33;-0.80;99.90
10848;DHT22;5477;48.806;9.154;2023-02-28T02:41:08;-0.90;99.90
10848;DHT22;5477;48.806;9.154;2023-02-28T02:43:44;-0.90;99.90
10848;DHT22;5477;48.806;9.154;2023-02-28T02:46:17;-0.90;99.90
10848;DHT22;5477;48.806;9.154;2023-02-28T02:48:48;-0.90;99.90
10848;DHT22;5477;48.806;9.154;2023-02-28T02:51:20;-0.80;99.90
10848;DHT22;5477;48.806;9.154;2023-02-28T02:53:51;-0.80;99.90
10848;DHT22;5477;48.806;9.154;2023-02-28T02:56:24;-0.80;99.90
10848;DHT22;5477;48.806;9.154;2023-02-28T02:58:59;-0.90;99.90
10848;DHT22;5477;48.806;9.154;2023-02-28T03:01:29;-0.90;99.90
10848;DHT22;5477;48.806;9.154;2023-02-28T03:04:01;-0.90;99.90
10848;DHT22;5477;48.806;9.154;2023-02-28T03:06:32;-0.90;99.90
10848;DHT22;5477;48.806;9.154;2023-02-28T03:09:00;-0.90;99.90
10848;DHT22;5477;48.806;9.154;2023-02-28T03:11:29;-0.90;99.90
10848;DHT22;5477;48.806;9.154;2023-02-28T03:17:24;-0.80;99.90
10848;DHT22;5477;48.806;9.154;2023-02-28T03:20:04;-0.90;99.90
10848;DHT22;5477;48.806;9.154;2023-02-28T03:22:45;-0.90;99.90
10848;DHT22;5477;48.806;9.154;2023-02-28T03:25:25;-0.90;99.90
10848;DHT22;5477;48.806;9.154;2023-02-28T03:28:00;-0.80;99.90
10848;DHT22;5477;48.806;9.154;2023-02-28T03:30:36;-0.80;99.90
10848;DHT22;5477;48.806;9.154;2023-02-28T03:33:08;-0.80;99.90
10848;DHT22;5477;48.806;9.154;2023-02-28T03:35:41;-0.80;99.90
10848;DHT22;5477;48.806;9.154;2023-02-28T03:38:14;-0.80;99.90
10848;DHT22;5477;48.806;9.154;2023-02-28T03:40:48;-0.80;99.90
10848;DHT22;5477;48.806;9.154;2023-02-28T03:43:21;-0.80;99.90
10848;DHT22;5477;48.806;9.154;2023-02-28T03:45:51;-0.80;99.90
10848;DHT22;5477;48.806;9.154;2023-02-28T03:48:21;-0.80;99.90
10848;DHT22;5477;48.806;9.154;2023-02-28T03:50:54;-0.80;99.90
10848;DHT22;5477;48.806;9.154;2023-02-28T03:53:27;-0.80;99.90
10848;DHT22;5477;48.806;9.154;2023-02-28T03:55:58;-0.70;99.90
10848;DHT22;5477;48.806;9.154;2023-02-28T03:58:31;-0.70;99.90
10848;DHT22;5477;48.806;9.154;2023-02-28T04:01:07;-0.70;99.90
10848;DHT22;5477;48.806;9.154;2023-02-28T04:03:37;-0.70;99.90
10848;DHT22;5477;48.806;9.154;2023-02-28T04:06:08;-0.70;99.90
10848;DHT22;5477;48.806;9.154;2023-02-28T04:08:42;-0.80;99.90
10848;DHT22;5477;48.806;9.154;2023-02-28T04:11:18;-0.70;99.90
10848;DHT22;5477;48.806;9.154;2023-02-28T04:13:47;-0.70;99.90
10848;DHT22;5477;48.806;9.154;2023-02-28T04:16:15;-0.70;99.90
10848;DHT22;5477;48.806;9.154;2023-02-28T04:19:00;-0.70;99.90
10848;DHT22;5477;48.806;9.154;2023-02-28T04:21:30;-0.70;99.90
10848;DHT22;5477;48.806;9.154;2023-02-28T04:24:00;-0.70;99.90
10848;DHT22;5477;48.806;9.154;2023-02-28T04:26:29;-0.60;99.90
10848;DHT22;5477;48.806;9.154;2023-02-28T04:28:58;-0.70;99.90
10848;DHT22;5477;48.806;9.154;2023-02-28T04:31:27;-0.70;99.90
10848;DHT22;5477;48.806;9.154;2023-02-28T04:33:55;-0.70;99.90
10848;DHT22;5477;48.806;9.154;2023-02-28T04:36:23;-0.70;99.90
10848;DHT22;5477;48.806;9.154;2023-02-28T04:38:51;-0.60;99.90
10848;DHT22;5477;48.806;9.154;2023-02-28T04:41:22;-0.60;99.90
10848;DHT22;5477;48.806;9.154;2023-02-28T04:43:51;-0.60;99.90
10848;DHT22;5477;48.806;9.154;2023-02-28T04:46:19;-0.60;99.90
10848;DHT22;5477;48.806;9.154;2023-02-28T04:48:48;-0.60;99.90
10848;DHT22;5477;48.806;9.154;2023-02-28T04:51:17;-0.60;99.90
10848;DHT22;5477;48.806;9.154;2023-02-28T04:53:45;-0.60;99.90
10848;DHT22;5477;48.806;9.154;2023-02-28T04:56:15;-0.60;99.90
10848;DHT22;5477;48.806;9.154;2023-02-28T04:58:44;-0.60;99.90
10848;DHT22;5477;48.806;9.154;2023-02-28T05:01:19;-0.60;99.90
10848;DHT22;5477;48.806;9.154;2023-02-28T05:03:49;-0.70;99.90
10848;DHT22;5477;48.806;9.154;2023-02-28T05:06:17;-0.60;99.90
10848;DHT22;5477;48.806;9.154;2023-02-28T05:08:45;-0.60;99.90
10848;DHT22;5477;48.806;9.154;2023-02-28T05:11:17;-0.60;99.90
10848;DHT22;5477;48.806;9.154;2023-02-28T05:13:47;-0.60;99.90
10848;DHT22;5477;48.806;9.154;2023-02-28T05:16:16;-0.60;99.90
10848;DHT22;5477;48.806;9.154;2023-02-28T05:18:44;-0.50;99.90
10848;DHT22;5477;48.806;9.154;2023-02-28T05:21:28;-0.60;99.90
10848;DHT22;5477;48.806;9.154;2023-02-28T05:23:57;-0.60;99.90
10848;DHT22;5477;48.806;9.154;2023-02-28T05:26:29;-0.60;99.90
10848;DHT22;5477;48.806;9.154;2023-02-28T05:28:58;-0.70;99.90
10848;DHT22;5477;48.806;9.154;2023-02-28T05:31:26;-0.60;99.90
10848;DHT22;5477;48.806;9.154;2023-02-28T05:33:55;-0.60;99.90
10848;DHT22;5477;48.806;9.154;2023-02-28T05:36:23;-0.60;99.90
10848;DHT22;5477;48.806;9.154;2023-02-28T05:38:51;-0.60;99.90
10848;DHT22;5477;48.806;9.154;2023-02-28T05:41:20;-0.60;99.90
10848;DHT22;5477;48.806;9.154;2023-02-28T05:43:48;-0.50;99.90
10848;DHT22;5477;48.806;9.154;2023-02-28T05:46:18;-0.50;99.90
10848;DHT22;5477;48.806;9.154;2023-02-28T05:48:47;-0.60;99.90
10848;DHT22;5477;48.806;9.154;2023-02-28T05:51:16;-0.60;99.90
10848;DHT22;5477;48.806;9.154;2023-02-28T05:53:45;-0.50;99.90
10848;DHT22;5477;48.806;9.154;2023-02-28T05:56:15;-0.50;99.90
10848;DHT22;5477;48.806;9.154;2023-02-28T05:58:44;-0.50;99.90
10848;DHT22;5477;48.806;9.154;2023-02-28T06:01:23;-0.50;99.90
10848;DHT22;5477;48.806;9.154;2023-02-28T06:03:52;-0.50;99.90
10848;DHT22;5477;48.806;9.154;2023-02-28T06:06:20;-0.40;99.90
10848;DHT22;5477;48.806;9.154;2023-02-28T06:08:49;-0.40;99.90
10848;DHT22;5477;48.806;9.154;2023-02-28T06:11:17;-0.50;99.90
10848;DHT22;5477;48.806;9.154;2023-02-28T06:13:47;-0.40;99.90
10848;DHT22;5477;48.806;9.154;2023-02-28T06:16:15;-0.50;99.90
10848;DHT22;5477;48.806;9.154;2023-02-28T06:18:45;-0.40;99.90
10848;DHT22;5477;48.806;9.154;2023-02-28T06:21:13;-0.40;99.90
10848;DHT22;5477;48.806;9.154;2023-02-28T06:23:42;-0.40;99.90
10848;DHT22;5477;48.806;9.154;2023-02-28T06:26:10;-0.40;99.90
10848;DHT22;5477;48.806;9.154;2023-02-28T06:28:38;-0.40;99.90
10848;DHT22;5477;48.806;9.154;2023-02-28T06:31:07;-0.40;99.90
10848;DHT22;5477;48.806;9.154;2023-02-28T06:33:36;-0.40;99.90
10848;DHT22;5477;48.806;9.154;2023-02-28T06:36:07;-0.40;99.90
10848;DHT22;5477;48.806;9.154;2023-02-28T06:38:35;-0.30;99.90
10848;DHT22;5477;48.806;9.154;2023-02-28T06:41:04;-0.30;99.90
10848;DHT22;5477;48.806;9.154;2023-02-28T06:43:35;-0.30;99.90
10848;DHT22;5477;48.806;9.154;2023-02-28T06:46:06;-0.30;99.90
10848;DHT22;5477;48.806;9.154;2023-02-28T06:48:35;-0.30;99.90
10848;DHT22;5477;48.806;9.154;2023-02-28T06:51:06;-0.30;99.90
10848;DHT22;5477;48.806;9.154;2023-02-28T06:53:35;-0.30;99.90
10848;DHT22;5477;48.806;9.154;2023-02-28T06:56:04;-0.20;99.90
10848;DHT22;5477;48.806;9.154;2023-02-28T06:58:33;-0.20;99.90
10848;DHT22;5477;48.806;9.154;2023-02-28T07:01:03;-0.10;99.90
10848;DHT22;5477;48.806;9.154;2023-02-28T07:03:31;-0.10;99.90
10848;DHT22;5477;48.806;9.154;2023-02-28T07:06:00;-0.10;99.90
10848;DHT22;5477;48.806;9.154;2023-02-28T07:08:30;-0.10;99.90
10848;DHT22;5477;48.806;9.154;2023-02-28T07:10:59;-0.10;99.90
10848;DHT22;5477;48.806;9.154;2023-02-28T07:13:27;-0.10;99.90
10848;DHT22;5477;48.806;9.154;2023-02-28T07:15:57;-0.10;99.90
10848;DHT22;5477;48.806;9.154;2023-02-28T07:18:26;-0.10;99.90
10848;DHT22;5477;48.806;9.154;2023-02-28T07:20:54;0.00;99.90
10848;DHT22;5477;48.806;9.154;2023-02-28T07:23:23;-0.10;99.90
10848;DHT22;5477;48.806;9.154;2023-02-28T07:25:52;-0.10;99.90
10848;DHT22;5477;48.806;9.154;2023-02-28T07:28:20;-0.10;99.90
10848;DHT22;5477;48.806;9.154;2023-02-28T07:30:48;-0.10;99.90
10848;DHT22;5477;48.806;9.154;2023-02-28T07:33:17;-0.10;99.90
10848;DHT22;5477;48.806;9.154;2023-02-28T07:35:45;-0.10;99.90
10848;DHT22;5477;48.806;9.154;2023-02-28T07:38:13;-0.10;99.90
10848;DHT22;5477;48.806;9.154;2023-02-28T07:40:41;0.00;99.90
10848;DHT22;5477;48.806;9.154;2023-02-28T07:43:10;0.00;99.90
10848;DHT22;5477;48.806;9.154;2023-02-28T07:45:38;0.00;99.90
10848;DHT22;5477;48.806;9.154;2023-02-28T07:48:06;0.10;99.90
10848;DHT22;5477;48.806;9.154;2023-02-28T07:50:37;0.20;99.90
10848;DHT22;5477;48.806;9.154;2023-02-28T07:53:05;0.20;99.90
10848;DHT22;5477;48.806;9.154;2023-02-28T07:55:33;0.20;99.90
10848;DHT22;5477;48.806;9.154;2023-02-28T07:58:01;0.30;99.90
10848;DHT22;5477;48.806;9.154;2023-02-28T08:00:31;0.20;99.90
10848;DHT22;5477;48.806;9.154;2023-02-28T08:02:59;0.20;99.90
10848;DHT22;5477;48.806;9.154;2023-02-28T08:05:27;0.30;99.90
10848;DHT22;5477;48.806;9.154;2023-02-28T08:07:55;0.20;99.90
10848;DHT22;5477;48.806;9.154;2023-02-28T08:10:23;0.20;99.90
10848;DHT22;5477;48.806;9.154;2023-02-28T08:12:51;0.20;99.90
10848;DHT22;5477;48.806;9.154;2023-02-28T08:15:19;0.20;99.90
10848;DHT22;5477;48.806;9.154;2023-02-28T08:17:49;0.20;99.90
10848;DHT22;5477;48.806;9.154;2023-02-28T08:20:17;0.20;99.90
10848;DHT22;5477;48.806;9.154;2023-02-28T08:22:45;0.30;99.90
10848;DHT22;5477;48.806;9.154;2023-02-28T08:25:13;0.20;99.90
10848;DHT22;5477;48.806;9.154;2023-02-28T08:27:40;0.20;99.90
10848;DHT22;5477;48.806;9.154;2023-02-28T08:30:10;0.30;99.90
10848;DHT22;5477;48.806;9.154;2023-02-28T08:32:39;0.40;99.90
10848;DHT22;5477;48.806;9.154;2023-02-28T08:35:09;0.40;99.90
10848;DHT22;5477;48.806;9.154;2023-02-28T08:37:37;0.50;99.90
10848;DHT22;5477;48.806;9.154;2023-02-28T08:40:07;0.50;99.90
10848;DHT22;5477;48.806;9.154;2023-02-28T08:42:35;0.60;99.90
10848;DHT22;5477;48.806;9.154;2023-02-28T08:45:04;0.70;99.90
10848;DHT22;5477;48.806;9.154;2023-02-28T08:47:32;0.70;99.90
10848;DHT22;5477;48.806;9.154;2023-02-28T08:49:59;0.70;99.90
10848;DHT22;5477;48.806;9.154;2023-02-28T08:52:29;0.70;99.90
10848;DHT22;5477;48.806;9.154;2023-02-28T08:54:57;0.80;99.90
10848;DHT22;5477;48.806;9.154;2023-02-28T08:57:25;0.80;99.90
10848;DHT22;5477;48.806;9.154;2023-02-28T08:59:54;0.80;99.90
10848;DHT22;5477;48.806;9.154;2023-02-28T09:02:22;0.80;99.90
10848;DHT22;5477;48.806;9.154;2023-02-28T09:04:50;0.80;99.90
10848;DHT22;5477;48.806;9.154;2023-02-28T09:07:18;0.90;99.90
10848;DHT22;5477;48.806;9.154;2023-02-28T09:09:47;0.90;99.90
10848;DHT22;5477;48.806;9.154;2023-02-28T09:12:22;1.00;99.90
10848;DHT22;5477;48.806;9.154;2023-02-28T09:14:50;1.00;99.90
10848;DHT22;5477;48.806;9.154;2023-02-28T09:17:19;1.10;99.90
10848;DHT22;5477;48.806;9.154;2023-02-28T09:19:49;1.20;99.90
10848;DHT22;5477;48.806;9.154;2023-02-28T09:22:17;1.20;99.90
10848;DHT22;5477;48.806;9.154;2023-02-28T09:24:47;1.20;99.90
10848;DHT22;5477;48.806;9.154;2023-02-28T09:27:14;1.30;99.90
10848;DHT22;5477;48.806;9.154;2023-02-28T09:29:42;1.20;99.90
10848;DHT22;5477;48.806;9.154;2023-02-28T09:32:10;1.20;99.90
10848;DHT22;5477;48.806;9.154;2023-02-28T09:34:38;1.30;99.90
10848;DHT22;5477;48.806;9.154;2023-02-28T09:37:07;1.40;99.90
10848;DHT22;5477;48.806;9.154;2023-02-28T09:39:35;1.50;99.90
10848;DHT22;5477;48.806;9.154;2023-02-28T09:42:04;1.50;99.90
10848;DHT22;5477;48.806;9.154;2023-02-28T09:44:36;1.50;99.90
10848;DHT22;5477;48.806;9.154;2023-02-28T09:47:11;1.40;99.90
10848;DHT22;5477;48.806;9.154;2023-02-28T09:49:41;1.40;99.90
10848;DHT22;5477;48.806;9.154;2023-02-28T09:52:13;1.40;99.90
10848;DHT22;5477;48.806;9.154;2023-02-28T09:54:41;1.40;99.90
10848;DHT22;5477;48.806;9.154;2023-02-28T09:57:17;1.40;99.90
10848;DHT22;5477;48.806;9.154;2023-02-28T10:00:00;1.40;99.90
10848;DHT22;5477;48.806;9.154;2023-02-28T10:02:54;1.50;99.90
10848;DHT22;5477;48.806;9.154;2023-02-28T10:05:31;1.60;99.90
10848;DHT22;5477;48.806;9.154;2023-02-28T10:08:05;1.70;99.90
10848;DHT22;5477;48.806;9.154;2023-02-28T10:10:39;1.70;99.90
10848;DHT22;5477;48.806;9.154;2023-02-28T10:13:15;1.70;99.90
10848;DHT22;5477;48.806;9.154;2023-02-28T10:15:45;1.80;99.90
10848;DHT22;5477;48.806;9.154;2023-02-28T10:18:19;2.00;99.90
10848;DHT22;5477;48.806;9.154;2023-02-28T10:20:49;2.30;99.90
10848;DHT22;5477;48.806;9.154;2023-02-28T10:23:21;2.30;99.90
10848;DHT22;5477;48.806;9.154;2023-02-28T10:25:54;2.20;99.90
10848;DHT22;5477;48.806;9.154;2023-02-28T10:28:25;2.10;99.90
10848;DHT22;5477;48.806;9.154;2023-02-28T10:30:54;2.20;99.90
10848;DHT22;5477;48.806;9.154;2023-02-28T10:33:24;2.30;99.90
10848;DHT22;5477;48.806;9.154;2023-02-28T10:35:52;2.40;99.90
10848;DHT22;5477;48.806;9.154;2023-02-28T10:38:23;2.50;99.90
10848;DHT22;5477;48.806;9.154;2023-02-28T10:40:51;2.70;99.90
10848;DHT22;5477;48.806;9.154;2023-02-28T10:43:29;2.80;99.90
10848;DHT22;5477;48.806;9.154;2023-02-28T10:46:02;2.80;99.90
10848;DHT22;5477;48.806;9.154;2023-02-28T10:48:33;2.90;99.90
10848;DHT22;5477;48.806;9.154;2023-02-28T10:51:02;3.10;99.90
10848;DHT22;5477;48.806;9.154;2023-02-28T10:53:45;3.20;99.90
10848;DHT22;5477;48.806;9.154;2023-02-28T10:56:27;3.50;99.90
10848;DHT22;5477;48.806;9.154;2023-02-28T10:58:58;3.80;99.90
10848;DHT22;5477;48.806;9.154;2023-02-28T11:01:37;4.20;99.90
10848;DHT22;5477;48.806;9.154;2023-02-28T11:04:18;4.90;99.20
10848;DHT22;5477;48.806;9.154;2023-02-28T11:06:55;5.20;98.10
10848;DHT22;5477;48.806;9.154;2023-02-28T11:09:27;5.40;97.50
10848;DHT22;5477;48.806;9.154;2023-02-28T11:11:57;5.30;96.90
10848;DHT22;5477;48.806;9.154;2023-02-28T11:14:28;5.40;96.80
10848;DHT22;5477;48.806;9.154;2023-02-28T11:17:00;5.50;96.20
10848;DHT22;5477;48.806;9.154;2023-02-28T11:19:33;5.80;95.90
10848;DHT22;5477;48.806;9.154;2023-02-28T11:22:04;6.10;95.30
10848;DHT22;5477;48.806;9.154;2023-02-28T11:24:35;6.20;94.50
10848;DHT22;5477;48.806;9.154;2023-02-28T11:27:04;6.00;94.40
10848;DHT22;5477;48.806;9.154;2023-02-28T11:29:46;5.90;94.30
10848;DHT22;5477;48.806;9.154;2023-02-28T11:32:18;6.20;94.50
10848;DHT22;5477;48.806;9.154;2023-02-28T11:35:00;6.60;93.80
10848;DHT22;5477;48.806;9.154;2023-02-28T11:37:31;6.90;92.80
10848;DHT22;5477;48.806;9.154;2023-02-28T11:40:00;7.20;92.00
10848;DHT22;5477;48.806;9.154;2023-02-28T11:42:54;7.40;91.00
10848;DHT22;5477;48.806;9.154;2023-02-28T11:45:40;7.40;91.50
10848;DHT22;5477;48.806;9.154;2023-02-28T11:48:17;7.40;90.60
10848;DHT22;5477;48.806;9.154;2023-02-28T11:50:54;7.70;90.40
10848;DHT22;5477;48.806;9.154;2023-02-28T11:53:44;7.90;89.70
10848;DHT22;5477;48.806;9.154;2023-02-28T11:56:21;8.00;87.80
10848;DHT22;5477;48.806;9.154;2023-02-28T11:58:59;8.10;87.20
10848;DHT22;5477;48.806;9.154;2023-02-28T12:01:42;8.40;86.30
10848;DHT22;5477;48.806;9.154;2023-02-28T12:04:24;8.60;84.60
10848;DHT22;5477;48.806;9.154;2023-02-28T12:06:57;8.80;83.90
10848;DHT22;5477;48.806;9.154;2023-02-28T12:09:38;8.80;82.90
10848;DHT22;5477;48.806;9.154;2023-02-28T12:12:18;9.10;82.20
10848;DHT22;5477;48.806;9.154;2023-02-28T12:15:13;9.60;80.50
10848;DHT22;5477;48.806;9.154;2023-02-28T12:17:55;9.50;79.20
10848;DHT22;5477;48.806;9.154;2023-02-28T12:20:32;9.30;78.10
10848;DHT22;5477;48.806;9.154;2023-02-28T12:23:18;9.30;78.90
10848;DHT22;5477;48.806;9.154;2023-02-28T12:26:07;9.50;77.80
10848;DHT22;5477;48.806;9.154;2023-02-28T12:28:40;10.00;75.90
10848;DHT22;5477;48.806;9.154;2023-02-28T12:31:12;10.40;74.50
10848;DHT22;5477;48.806;9.154;2023-02-28T12:33:47;10.70;73.00
10848;DHT22;5477;48.806;9.154;2023-02-28T12:36:18;10.80;71.70
10848;DHT22;5477;48.806;9.154;2023-02-28T12:38:51;10.90;70.90
10848;DHT22;5477;48.806;9.154;2023-02-28T12:41:29;10.80;70.80
10848;DHT22;5477;48.806;9.154;2023-02-28T12:44:03;11.00;69.60
10848;DHT22;5477;48.806;9.154;2023-02-28T12:46:35;11.00;68.80
10848;DHT22;5477;48.806;9.154;2023-02-28T12:49:09;10.60;68.60
10848;DHT22;5477;48.806;9.154;2023-02-28T12:51:38;10.10;69.40
10848;DHT22;5477;48.806;9.154;2023-02-28T12:54:16;10.30;70.00
10848;DHT22;5477;48.806;9.154;2023-02-28T12:56:49;10.30;69.20
10848;DHT22;5477;48.806;9.154;2023-02-28T12:59:25;9.80;70.80
10848;DHT22;5477;48.806;9.154;2023-02-28T13:02:24;9.20;71.90
10848;DHT22;5477;48.806;9.154;2023-02-28T13:05:14;8.80;73.40
10848;DHT22;5477;48.806;9.154;2023-02-28T13:08:12;8.30;74.80
10848;DHT22;5477;48.806;9.154;2023-02-28T13:10:46;8.10;75.80
10848;DHT22;5477;48.806;9.154;2023-02-28T13:13:18;7.80;76.70
10848;DHT22;5477;48.806;9.154;2023-02-28T13:16:02;7.40;77.60
10848;DHT22;5477;48.806;9.154;2023-02-28T13:18:33;7.10;78.90
10848;DHT22;5477;48.806;9.154;2023-02-28T13:21:06;7.00;79.80
10848;DHT22;5477;48.806;9.154;2023-02-28T13:23:41;7.00;80.20
10848;DHT22;5477;48.806;9.154;2023-02-28T13:29:30;7.00;80.90
10848;DHT22;5477;48.806;9.154;2023-02-28T13:38:22;7.00;81.90
10848;DHT22;5477;48.806;9.154;2023-02-28T13:40:50;7.00;81.60
10848;DHT22;5477;48.806;9.154;2023-02-28T13:43:18;7.00;82.10
10848;DHT22;5477;48.806;9.154;2023-02-28T13:46:11;7.00;82.00
10848;DHT22;5477;48.806;9.154;2023-02-28T13:48:41;7.00;81.40
10848;DHT22;5477;48.806;9.154;2023-02-28T13:51:43;7.00;81.80
10848;DHT22;5477;48.806;9.154;2023-02-28T13:54:22;7.20;82.00
10848;DHT22;5477;48.806;9.154;2023-02-28T13:57:01;7.30;81.60
10848;DHT22;5477;48.806;9.154;2023-02-28T13:59:38;7.40;80.90
10848;DHT22;5477;48.806;9.154;2023-02-28T14:02:31;7.50;81.10
10848;DHT22;5477;48.806;9.154;2023-02-28T14:05:05;7.50;80.40
10848;DHT22;5477;48.806;9.154;2023-02-28T14:07:40;7.50;80.10
10848;DHT22;5477;48.806;9.154;2023-02-28T14:10:22;7.40;79.80
10848;DHT22;5477;48.806;9.154;2023-02-28T14:13:00;7.40;79.80
10848;DHT22;5477;48.806;9.154;2023-02-28T14:15:45;7.50;79.70
10848;DHT22;5477;48.806;9.154;2023-02-28T14:18:18;7.70;79.90
10848;DHT22;5477;48.806;9.154;2023-02-28T14:20:48;8.20;79.30
10848;DHT22;5477;48.806;9.154;2023-02-28T14:23:29;8.60;77.50
10848;DHT22;5477;48.806;9.154;2023-02-28T14:26:05;8.70;76.40
10848;DHT22;5477;48.806;9.154;2023-02-28T14:28:48;8.80;75.80
10848;DHT22;5477;48.806;9.154;2023-02-28T14:31:28;9.00;75.30
10848;DHT22;5477;48.806;9.154;2023-02-28T14:34:14;9.20;75.30
10848;DHT22;5477;48.806;9.154;2023-02-28T14:36:45;9.70;74.10
10848;DHT22;5477;48.806;9.154;2023-02-28T14:39:15;9.60;72.70
10848;DHT22;5477;48.806;9.154;2023-02-28T14:41:46;9.60;72.40
10848;DHT22;5477;48.806;9.154;2023-02-28T14:44:17;9.80;71.90
10848;DHT22;5477;48.806;9.154;2023-02-28T14:46:48;10.00;70.50
10848;DHT22;5477;48.806;9.154;2023-02-28T14:49:19;10.70;69.80
10848;DHT22;5477;48.806;9.154;2023-02-28T14:51:49;10.60;68.30
10848;DHT22;5477;48.806;9.154;2023-02-28T14:54:21;10.90;67.80
10848;DHT22;5477;48.806;9.154;2023-02-28T14:56:52;11.30;67.30
10848;DHT22;5477;48.806;9.154;2023-02-28T14:59:25;12.00;65.10
10848;DHT22;5477;48.806;9.154;2023-02-28T15:02:19;11.10;65.30
10848;DHT22;5477;48.806;9.154;2023-02-28T15:04:55;10.60;66.90
10848;DHT22;5477;48.806;9.154;2023-02-28T15:07:23;10.40;67.20
10848;DHT22;5477;48.806;9.154;2023-02-28T15:10:16;10.40;67.10
10848;DHT22;5477;48.806;9.154;2023-02-28T15:12:51;10.50;66.70
10848;DHT22;5477;48.806;9.154;2023-02-28T15:15:21;10.20;67.10
10848;DHT22;5477;48.806;9.154;2023-02-28T15:18:07;9.70;70.20
10848;DHT22;5477;48.806;9.154;2023-02-28T15:20:39;9.40;70.80
10848;DHT22;5477;48.806;9.154;2023-02-28T15:23:08;9.20;71.30
10848;DHT22;5477;48.806;9.154;2023-02-28T15:25:37;9.10;71.90
10848;DHT22;5477;48.806;9.154;2023-02-28T15:28:13;9.10;72.50
10848;DHT22;5477;48.806;9.154;2023-02-28T15:30:51;8.90;72.80
10848;DHT22;5477;48.806;9.154;2023-02-28T15:33:22;8.50;73.90
10848;DHT22;5477;48.806;9.154;2023-02-28T15:35:50;8.10;75.60
10848;DHT22;5477;48.806;9.154;2023-02-28T15:38:22;7.80;76.80
10848;DHT22;5477;48.806;9.154;2023-02-28T15:40:53;7.50;77.60
10848;DHT22;5477;48.806;9.154;2023-02-28T15:43:27;7.20;78.40
10848;DHT22;5477;48.806;9.154;2023-02-28T15:45:58;7.00;79.50
10848;DHT22;5477;48.806;9.154;2023-02-28T15:48:29;7.00;80.70
10848;DHT22;5477;48.806;9.154;2023-02-28T15:51:02;6.90;81.20
10848;DHT22;5477;48.806;9.154;2023-02-28T15:53:35;6.90;81.80
10848;DHT22;5477;48.806;9.154;2023-02-28T15:56:06;6.80;82.40
10848;DHT22;5477;48.806;9.154;2023-02-28T15:58:42;6.80;83.00
10848;DHT22;5477;48.806;9.154;2023-02-28T16:01:19;6.70;83.40
10848;DHT22;5477;48.806;9.154;2023-02-28T16:03:50;6.50;83.70
10848;DHT22;5477;48.806;9.154;2023-02-28T16:06:33;6.50;84.70
10848;DHT22;5477;48.806;9.154;2023-02-28T16:09:02;6.30;83.60
10848;DHT22;5477;48.806;9.154;2023-02-28T16:11:30;6.30;84.70
10848;DHT22;5477;48.806;9.154;2023-02-28T16:14:01;6.30;85.40
10848;DHT22;5477;48.806;9.154;2023-02-28T16:16:31;6.30;85.20
10848;DHT22;5477;48.806;9.154;2023-02-28T16:18:59;6.10;85.10
10848;DHT22;5477;48.806;9.154;2023-02-28T16:21:27;6.00;85.90
10848;DHT22;5477;48.806;9.154;2023-02-28T16:23:55;6.00;86.60
10848;DHT22;5477;48.806;9.154;2023-02-28T16:26:24;5.80;87.20
10848;DHT22;5477;48.806;9.154;2023-02-28T16:28:54;5.70;87.50
10848;DHT22;5477;48.806;9.154;2023-02-28T16:31:23;5.70;88.40
10848;DHT22;5477;48.806;9.154;2023-02-28T16:33:51;5.60;88.70
10848;DHT22;5477;48.806;9.154;2023-02-28T16:36:21;5.60;89.40
10848;DHT22;5477;48.806;9.154;2023-02-28T16:38:51;5.60;89.60